Pitkin, Louisiana
Current Conditions -  °F | °C
As of 4:58 PM on Tuesday 25 Nov 2014 (Local Time) from KPOE Reporting Station
Clear Clear  
Wind Chill: 54°   Ceiling: Unl
Heat Index: 54°   Visibility: 10mi
Dew Point: 32°   Wind: 2mph
Humidity: 43%   Direction: 340°NNW
Pressure: 30.2"   Gusts: NA
Location:  30.94°N, 92.94°W
Report Text: KPOE 252258Z AUTO 34002KT 10SM CLR 12/00 A3020 RMK AO2 SLP230 T01231000
Loading
Personal Weather Stations






























Interactive Weather Map New forecast layout! Learn more

10-Day Weather Forecast

Advertisements
Track Severe Weather on mobile